Time;durP1;ratioP1;P1;durP2;ratioP2;P2;SDS_P1;SDS_P2;PMS_P1;PMS_P2;Temp;Humidity;BMP_temperature;BMP_pressure;BME280_temperature;BME280_humidity;BME280_pressure;Samples;Min_cycle;Max_cycle;Signal;HPM_P1;HPM_P2
2024/02/26 00:01:53;;;;;;;6.20;4.20;;;3.10;99.90;;;;;;5042994;28;20264;-84
2024/02/26 00:04:21;;;;;;;2.45;2.33;;;3.10;99.90;;;;;;5043822;28;20227;-86
2024/02/26 00:06:51;;;;;;;3.30;3.10;;;3.00;99.90;;;;;;5057179;28;20220;-86
2024/02/26 00:09:18;;;;;;;4.35;3.95;;;3.00;99.90;;;;;;5063051;28;20204;-87
2024/02/26 00:11:45;;;;;;;3.45;3.25;;;3.00;99.90;;;;;;5056471;28;20224;-87
2024/02/26 00:14:13;;;;;;;6.45;6.00;;;3.30;99.90;;;;;;5050450;28;20208;-89
2024/02/26 00:16:41;;;;;;;3.25;2.65;;;3.30;99.90;;;;;;5050883;28;20396;-83
2024/02/26 00:19:08;;;;;;;7.55;2.83;;;3.30;99.90;;;;;;5055958;28;20239;-83
2024/02/26 00:21:39;;;;;;;3.15;2.88;;;3.70;99.90;;;;;;5062864;28;20233;-84
2024/02/26 00:24:06;;;;;;;4.85;4.40;;;3.60;99.90;;;;;;5041047;28;20227;-87
2024/02/26 00:26:36;;;;;;;10.23;6.80;;;3.80;99.90;;;;;;5053475;28;20203;-83
2024/02/26 00:29:03;;;;;;;7.88;5.72;;;3.80;99.90;;;;;;5043944;28;20208;-84
2024/02/26 00:31:30;;;;;;;6.80;6.30;;;3.80;99.90;;;;;;5053916;28;20551;-84
2024/02/26 00:33:57;;;;;;;4.72;4.43;;;3.80;99.90;;;;;;5063012;28;20199;-85
2024/02/26 00:36:24;;;;;;;3.60;3.40;;;3.80;99.90;;;;;;5045484;28;20196;-85
2024/02/26 00:38:52;;;;;;;1.73;1.70;;;3.90;99.90;;;;;;5043875;28;20197;-84
2024/02/26 00:41:22;;;;;;;3.70;3.05;;;3.90;99.90;;;;;;5039069;28;20201;-83
2024/02/26 00:43:49;;;;;;;4.82;3.90;;;3.90;99.90;;;;;;5040029;28;20203;-84
2024/02/26 00:46:16;;;;;;;25.13;7.43;;;3.80;99.90;;;;;;5039225;28;20486;-84
2024/02/26 00:48:43;;;;;;;1.90;1.80;;;3.50;99.90;;;;;;5046572;28;20203;-84
2024/02/26 00:51:10;;;;;;;3.45;3.13;;;3.50;99.90;;;;;;5048757;28;20227;-84
2024/02/26 00:53:38;;;;;;;1.95;1.85;;;3.50;99.90;;;;;;5049656;28;20224;-84
2024/02/26 00:56:06;;;;;;;1.90;1.80;;;3.40;99.90;;;;;;5055334;28;20203;-85
2024/02/26 00:58:33;;;;;;;3.28;3.03;;;3.60;99.90;;;;;;5041167;28;20204;-87
2024/02/26 01:01:00;;;;;;;10.15;2.65;;;3.50;99.90;;;;;;5048209;28;20508;-85
2024/02/26 01:03:27;;;;;;;2.63;2.53;;;3.60;99.90;;;;;;5044530;28;20408;-85
2024/02/26 01:05:54;;;;;;;2.17;2.08;;;3.70;99.90;;;;;;5044305;28;20481;-85
2024/02/26 01:08:25;;;;;;;3.00;2.90;;;3.60;99.90;;;;;;5047223;28;20481;-85
2024/02/26 01:10:52;;;;;;;1.98;1.88;;;3.70;99.90;;;;;;5056238;28;20252;-84
2024/02/26 01:13:19;;;;;;;3.20;1.90;;;3.80;99.90;;;;;;5055913;28;20236;-84
2024/02/26 01:15:46;;;;;;;5.25;3.42;;;3.60;99.90;;;;;;5049810;28;20239;-86
2024/02/26 01:18:13;;;;;;;6.43;6.03;;;3.50;99.90;;;;;;5054166;28;20271;-84
2024/02/26 01:20:41;;;;;;;2.05;1.95;;;3.30;99.90;;;;;;5049358;28;20207;-85
2024/02/26 01:23:08;;;;;;;2.90;2.70;;;3.40;99.90;;;;;;5047799;28;20264;-85
2024/02/26 01:25:36;;;;;;;4.78;4.22;;;3.20;99.90;;;;;;5058657;28;20281;-85
2024/02/26 01:28:04;;;;;;;6.78;3.97;;;3.20;99.90;;;;;;5073569;28;20208;-85
2024/02/26 01:30:31;;;;;;;3.72;3.15;;;3.40;99.90;;;;;;5068204;28;20303;-84
2024/02/26 01:32:59;;;;;;;2.00;1.90;;;3.30;99.90;;;;;;5061431;28;20184;-85
2024/02/26 01:35:26;;;;;;;5.30;3.80;;;3.30;99.90;;;;;;5053308;28;20243;-84
2024/02/26 01:37:53;;;;;;;5.80;3.15;;;2.90;99.90;;;;;;5046601;28;20268;-84
2024/02/26 01:40:20;;;;;;;2.83;2.63;;;3.30;99.90;;;;;;5046904;28;20663;-83
2024/02/26 01:42:48;;;;;;;5.72;5.18;;;3.20;99.90;;;;;;5043011;28;20484;-84
2024/02/26 01:45:23;;;;;;;2.72;2.53;;;3.10;99.90;;;;;;5057266;28;20511;-84
2024/02/26 01:47:52;;;;;;;1.50;1.40;;;3.20;99.90;;;;;;5044063;28;20200;-87
2024/02/26 01:50:21;;;;;;;6.68;3.65;;;3.40;99.90;;;;;;5053791;28;20199;-83
2024/02/26 01:52:50;;;;;;;1.25;1.15;;;3.20;99.90;;;;;;5055376;28;20208;-85
2024/02/26 01:55:19;;;;;;;4.78;4.47;;;3.00;99.90;;;;;;5065508;28;20237;-85
2024/02/26 01:57:48;;;;;;;7.03;4.13;;;3.20;99.90;;;;;;5054613;28;20199;-83
2024/02/26 02:00:16;;;;;;;3.70;2.63;;;3.10;99.90;;;;;;5046934;28;20239;-85
2024/02/26 02:02:46;;;;;;;4.68;4.15;;;3.10;99.90;;;;;;5046159;28;20272;-83
2024/02/26 02:05:17;;;;;;;9.82;6.03;;;3.00;99.90;;;;;;5049152;28;20200;-84
2024/02/26 02:07:45;;;;;;;3.40;3.20;;;3.10;99.90;;;;;;5064245;28;20206;-84
2024/02/26 02:10:12;;;;;;;7.80;4.00;;;3.00;99.90;;;;;;5052386;28;20201;-85
2024/02/26 02:12:40;;;;;;;2.28;2.17;;;3.00;99.90;;;;;;5062088;28;20239;-85
2024/02/26 02:15:08;;;;;;;2.38;2.22;;;3.00;99.90;;;;;;5050140;28;20200;-85
2024/02/26 02:17:35;;;;;;;1.98;1.88;;;3.00;99.90;;;;;;5051519;28;20220;-85
2024/02/26 02:20:03;;;;;;;6.35;3.95;;;3.00;99.90;;;;;;5046139;28;20210;-85
2024/02/26 02:22:32;;;;;;;3.42;3.05;;;3.10;99.90;;;;;;5046463;28;20211;-84
2024/02/26 02:24:59;;;;;;;7.18;3.10;;;3.20;99.90;;;;;;5048570;28;20260;-84
2024/02/26 02:27:28;;;;;;;7.13;5.43;;;3.10;99.90;;;;;;5060590;28;20196;-83
2024/02/26 02:29:56;;;;;;;2.40;2.20;;;3.10;99.90;;;;;;5059779;28;20219;-85
2024/02/26 02:32:25;;;;;;;2.55;2.45;;;3.10;99.90;;;;;;5059218;28;20247;-84
2024/02/26 02:34:52;;;;;;;4.95;4.45;;;3.10;99.90;;;;;;5056588;28;20228;-84
2024/02/26 02:37:19;;;;;;;3.83;3.33;;;3.10;99.90;;;;;;5030970;28;20197;-83
2024/02/26 02:39:46;;;;;;;7.80;3.80;;;3.00;99.90;;;;;;5045959;28;20232;-84
2024/02/26 02:42:13;;;;;;;1.67;1.67;;;3.00;99.90;;;;;;5036600;28;20271;-84
2024/02/26 02:44:40;;;;;;;3.13;2.55;;;3.10;99.90;;;;;;5035507;28;20201;-83
2024/02/26 02:47:07;;;;;;;3.67;3.38;;;3.10;99.90;;;;;;5047177;28;20415;-83
2024/02/26 02:49:37;;;;;;;5.78;3.15;;;3.10;99.90;;;;;;5044420;28;20204;-83
2024/02/26 02:52:04;;;;;;;2.47;1.23;;;3.10;99.90;;;;;;5045881;28;20220;-84
2024/02/26 02:54:32;;;;;;;1.50;1.50;;;3.00;99.90;;;;;;5038431;28;20223;-83
2024/02/26 02:56:59;;;;;;;5.10;2.88;;;2.90;99.90;;;;;;5043326;28;20228;-83
2024/02/26 02:59:26;;;;;;;1.38;1.38;;;2.80;99.90;;;;;;5060020;28;20201;-83
2024/02/26 03:01:53;;;;;;;2.50;2.30;;;3.10;99.90;;;;;;5047721;28;20243;-83
2024/02/26 03:04:19;;;;;;;2.78;2.58;;;3.10;99.90;;;;;;5056633;28;20208;-84
2024/02/26 03:06:47;;;;;;;5.90;5.38;;;2.90;99.90;;;;;;5066437;28;20285;-84
2024/02/26 03:09:14;;;;;;;4.53;4.32;;;3.10;99.90;;;;;;5056911;28;20204;-84
2024/02/26 03:11:41;;;;;;;1.23;1.23;;;2.70;99.90;;;;;;5068240;28;20216;-83
2024/02/26 03:14:09;;;;;;;2.00;1.90;;;2.50;99.90;;;;;;5061695;28;20189;-85
2024/02/26 03:16:36;;;;;;;2.33;2.22;;;2.60;99.90;;;;;;5045962;28;20205;-85
2024/02/26 03:19:03;;;;;;;3.90;3.70;;;2.50;99.90;;;;;;5044429;28;20195;-84
2024/02/26 03:21:30;;;;;;;8.48;3.65;;;2.40;99.90;;;;;;5064676;28;20246;-85
2024/02/26 03:23:58;;;;;;;4.70;3.65;;;2.40;99.90;;;;;;5057305;28;20215;-83
2024/02/26 03:26:25;;;;;;;2.88;2.67;;;2.80;99.90;;;;;;5043302;28;20263;-84
2024/02/26 03:28:52;;;;;;;2.90;2.67;;;2.50;99.90;;;;;;5054847;28;20204;-85
2024/02/26 03:31:19;;;;;;;0.80;0.80;;;2.50;99.90;;;;;;5049315;28;20232;-85
2024/02/26 03:33:47;;;;;;;5.88;4.75;;;2.50;99.90;;;;;;5036790;28;20204;-85
2024/02/26 03:36:14;;;;;;;5.28;4.20;;;2.60;99.90;;;;;;5041253;28;20559;-84
2024/02/26 03:38:42;;;;;;;9.13;3.65;;;2.50;99.90;;;;;;5046400;28;20212;-83
2024/02/26 03:41:09;;;;;;;2.85;2.70;;;2.50;99.90;;;;;;5042819;28;20200;-85
2024/02/26 03:43:36;;;;;;;3.78;3.42;;;2.50;99.90;;;;;;5050426;28;20227;-83
2024/02/26 03:46:03;;;;;;;3.00;2.80;;;2.50;99.90;;;;;;5048336;28;20235;-84
2024/02/26 03:48:30;;;;;;;4.53;4.18;;;2.50;99.90;;;;;;5039916;28;20254;-84
2024/02/26 03:50:58;;;;;;;3.05;2.85;;;2.50;99.90;;;;;;5044186;28;20247;-86
2024/02/26 03:53:25;;;;;;;5.45;5.10;;;2.30;99.90;;;;;;5044428;28;20219;-85
2024/02/26 03:55:55;;;;;;;2.15;2.05;;;2.20;99.90;;;;;;5046346;28;20216;-85
2024/02/26 03:58:22;;;;;;;2.92;2.72;;;2.20;99.90;;;;;;5061866;28;20206;-87
2024/02/26 04:00:49;;;;;;;1.23;1.23;;;2.20;99.90;;;;;;5037165;28;20235;-84
2024/02/26 04:03:16;;;;;;;11.15;6.38;;;2.40;99.90;;;;;;5044445;28;20200;-85
2024/02/26 04:05:43;;;;;;;4.10;3.72;;;2.10;99.90;;;;;;5061720;28;20377;-86
2024/02/26 04:08:10;;;;;;;11.80;2.40;;;1.90;99.90;;;;;;5036076;28;20212;-85
2024/02/26 04:10:38;;;;;;;2.92;2.72;;;2.00;99.90;;;;;;5043697;28;20201;-86
2024/02/26 04:13:08;;;;;;;2.10;2.00;;;2.00;99.90;;;;;;5041375;28;20224;-87
2024/02/26 04:15:35;;;;;;;5.40;4.22;;;2.00;99.90;;;;;;5047877;28;20204;-87
2024/02/26 04:18:02;;;;;;;1.90;1.80;;;1.90;99.90;;;;;;5045135;28;20222;-86
2024/02/26 04:20:30;;;;;;;0.90;0.90;;;2.00;99.90;;;;;;5042118;28;20200;-86
2024/02/26 04:22:56;;;;;;;2.78;2.33;;;2.20;99.90;;;;;;5060528;28;20211;-87
2024/02/26 04:25:25;;;;;;;2.85;2.58;;;2.10;99.90;;;;;;5055892;28;20235;-85
2024/02/26 04:27:52;;;;;;;4.95;4.60;;;2.30;99.90;;;;;;5054884;28;20216;-86
2024/02/26 04:30:19;;;;;;;2.25;2.15;;;2.20;99.90;;;;;;5064616;28;20246;-86
2024/02/26 04:32:46;;;;;;;3.55;3.35;;;2.10;99.90;;;;;;5044696;28;20228;-85
2024/02/26 04:35:13;;;;;;;3.97;2.97;;;2.00;99.90;;;;;;5046558;28;20207;-87
2024/02/26 04:37:41;;;;;;;3.35;3.05;;;2.10;99.90;;;;;;5047855;28;20200;-86
2024/02/26 04:40:09;;;;;;;3.72;2.85;;;2.10;99.90;;;;;;5035216;28;20229;-84
2024/02/26 04:42:36;;;;;;;3.88;3.67;;;2.30;99.90;;;;;;5061738;28;20208;-87
2024/02/26 04:45:04;;;;;;;4.28;3.05;;;2.30;99.90;;;;;;5058516;28;20234;-83
2024/02/26 04:47:31;;;;;;;3.65;3.47;;;2.30;99.90;;;;;;5048409;28;20238;-82
2024/02/26 04:49:58;;;;;;;1.90;1.80;;;2.20;99.90;;;;;;5048488;28;20200;-82
2024/02/26 04:52:25;;;;;;;3.83;3.63;;;2.30;99.90;;;;;;5047625;28;20287;-82
2024/02/26 04:54:53;;;;;;;5.55;3.17;;;2.20;99.90;;;;;;5027453;28;20200;-86
2024/02/26 04:57:22;;;;;;;4.75;4.45;;;2.20;99.90;;;;;;5053259;28;20268;-85
2024/02/26 04:59:49;;;;;;;4.90;3.72;;;2.10;99.90;;;;;;5058130;28;20284;-86
2024/02/26 05:02:16;;;;;;;4.03;3.83;;;2.10;99.90;;;;;;5047513;28;20197;-87
2024/02/26 05:04:43;;;;;;;2.22;2.13;;;2.20;99.90;;;;;;5038862;28;20212;-87
2024/02/26 05:07:10;;;;;;;5.13;4.78;;;2.20;99.90;;;;;;5035791;28;20212;-85
2024/02/26 05:09:39;;;;;;;3.13;2.92;;;2.20;99.90;;;;;;5056821;28;20207;-87
2024/02/26 05:12:09;;;;;;;1.40;1.40;;;2.30;99.90;;;;;;5060893;28;20216;-86
2024/02/26 05:14:36;;;;;;;5.22;4.63;;;2.10;99.90;;;;;;5060269;28;20195;-87
2024/02/26 05:17:04;;;;;;;3.80;3.47;;;2.40;99.90;;;;;;5055638;28;20215;-86
2024/02/26 05:19:31;;;;;;;4.80;4.22;;;2.20;99.90;;;;;;5051781;28;20200;-87
2024/02/26 05:21:58;;;;;;;4.57;4.15;;;2.40;99.90;;;;;;5041865;28;20404;-86
2024/02/26 05:24:25;;;;;;;7.18;3.03;;;2.40;99.90;;;;;;5060515;28;20267;-86
2024/02/26 05:26:53;;;;;;;3.88;3.10;;;2.50;99.90;;;;;;5056635;28;20211;-83
2024/02/26 05:29:20;;;;;;;1.65;1.65;;;2.40;99.90;;;;;;5057904;28;20238;-85
2024/02/26 05:31:47;;;;;;;3.67;3.47;;;2.40;99.90;;;;;;5042098;28;20235;-88
2024/02/26 05:34:14;;;;;;;3.35;3.17;;;2.60;99.90;;;;;;5040739;28;20192;-87
2024/02/26 05:36:41;;;;;;;6.07;5.53;;;2.80;99.90;;;;;;5052915;28;20247;-88
2024/02/26 05:39:11;;;;;;;6.78;6.10;;;2.60;99.90;;;;;;5058287;28;20228;-90
2024/02/26 05:41:44;;;;;;;7.40;5.50;;;2.70;99.90;;;;;;5050114;28;20223;-87
2024/02/26 05:44:13;;;;;;;5.80;5.30;;;2.70;99.90;;;;;;5043399;28;20200;-87
2024/02/26 05:46:40;;;;;;;4.05;3.85;;;3.00;99.90;;;;;;5047039;28;20267;-87
2024/02/26 05:49:07;;;;;;;4.30;4.00;;;3.00;99.90;;;;;;5062045;28;20212;-89
2024/02/26 05:51:34;;;;;;;3.65;3.08;;;2.80;99.90;;;;;;5052680;28;20220;-85
2024/02/26 05:54:01;;;;;;;5.78;2.70;;;2.90;99.90;;;;;;5058225;28;20208;-84
2024/02/26 05:56:31;;;;;;;5.35;4.88;;;3.00;99.90;;;;;;5040834;28;20209;-84
2024/02/26 05:58:59;;;;;;;2.95;2.85;;;2.90;99.90;;;;;;5052273;28;20234;-82
2024/02/26 06:01:26;;;;;;;3.00;2.80;;;3.00;99.90;;;;;;5050311;28;20243;-78
2024/02/26 06:03:53;;;;;;;2.22;2.13;;;3.10;99.90;;;;;;5049902;28;20250;-79
2024/02/26 06:06:22;;;;;;;10.00;4.65;;;3.20;99.90;;;;;;5053944;28;20481;-79
2024/02/26 06:08:49;;;;;;;3.42;3.22;;;3.20;99.90;;;;;;5046816;28;20200;-79
2024/02/26 06:11:17;;;;;;;1.30;1.30;;;3.30;99.90;;;;;;5049378;28;20207;-81
2024/02/26 06:13:44;;;;;;;3.72;3.53;;;3.30;99.90;;;;;;5053289;28;20212;-80
2024/02/26 06:16:11;;;;;;;4.70;4.50;;;3.30;99.90;;;;;;5055309;28;20196;-79
2024/02/26 06:18:39;;;;;;;6.78;4.32;;;3.40;99.90;;;;;;5056394;28;20219;-83
2024/02/26 06:21:10;;;;;;;5.95;4.88;;;3.50;99.90;;;;;;5056484;28;20197;-77
2024/02/26 06:23:40;;;;;;;7.05;6.47;;;3.50;99.90;;;;;;5054552;28;20216;-78
2024/02/26 06:26:07;;;;;;;5.53;5.03;;;4.00;99.90;;;;;;5049939;28;20207;-79
2024/02/26 06:28:35;;;;;;;4.15;3.88;;;4.30;99.90;;;;;;5042405;28;20228;-77
2024/02/26 06:31:03;;;;;;;3.60;3.30;;;4.50;99.90;;;;;;5043944;28;20239;-80
2024/02/26 06:33:30;;;;;;;4.25;3.92;;;4.20;99.90;;;;;;5049895;28;20408;-80
2024/02/26 06:35:57;;;;;;;6.85;4.88;;;4.20;99.90;;;;;;5051574;28;20254;-81
2024/02/26 06:38:24;;;;;;;2.88;2.67;;;4.00;99.90;;;;;;5042585;28;20203;-79
2024/02/26 06:40:51;;;;;;;7.32;5.75;;;4.10;99.90;;;;;;5050729;28;20203;-80
2024/02/26 06:43:20;;;;;;;5.07;3.90;;;4.40;99.90;;;;;;5039038;28;20271;-81
2024/02/26 06:45:47;;;;;;;5.05;3.47;;;4.30;99.90;;;;;;5051514;28;20208;-80
2024/02/26 06:48:14;;;;;;;4.63;4.38;;;4.50;99.90;;;;;;5049452;28;20242;-78
2024/02/26 06:50:41;;;;;;;4.32;3.92;;;4.70;99.90;;;;;;5032424;28;20275;-79
2024/02/26 06:53:08;;;;;;;4.18;3.85;;;4.50;99.90;;;;;;5053626;28;20284;-77
2024/02/26 06:55:37;;;;;;;3.78;3.05;;;4.50;99.90;;;;;;5046164;28;20231;-79
2024/02/26 06:58:04;;;;;;;6.18;5.22;;;4.50;99.90;;;;;;5043864;28;20231;-78
2024/02/26 07:00:31;;;;;;;2.60;2.50;;;4.70;99.90;;;;;;5053538;28;20250;-78
2024/02/26 07:02:58;;;;;;;5.80;5.40;;;5.20;99.90;;;;;;5046378;28;20212;-78
2024/02/26 07:05:25;;;;;;;2.97;2.85;;;5.30;99.90;;;;;;5046378;28;20201;-78
2024/02/26 07:07:52;;;;;;;3.03;2.85;;;5.70;99.90;;;;;;5044638;28;20397;-76
2024/02/26 07:10:19;;;;;;;6.85;6.45;;;6.10;99.90;;;;;;5050789;28;20202;-77
2024/02/26 07:12:47;;;;;;;8.68;3.83;;;6.30;99.90;;;;;;5043279;28;20296;-78
2024/02/26 07:15:14;;;;;;;5.18;2.88;;;6.50;99.90;;;;;;5046099;28;20240;-78
2024/02/26 07:17:41;;;;;;;4.18;3.83;;;6.30;99.90;;;;;;5047964;28;20216;-77
2024/02/26 07:20:09;;;;;;;3.40;3.20;;;6.30;99.90;;;;;;5045046;28;20211;-77
2024/02/26 07:22:38;;;;;;;4.47;4.07;;;6.70;99.90;;;;;;5041844;28;20213;-76
2024/02/26 07:25:07;;;;;;;3.33;3.13;;;6.60;99.90;;;;;;5042161;28;20268;-77
2024/02/26 07:27:34;;;;;;;2.13;2.03;;;6.50;99.90;;;;;;5042269;28;20235;-76
2024/02/26 07:30:02;;;;;;;5.78;3.28;;;6.50;99.90;;;;;;5057130;28;20267;-76
2024/02/26 07:32:29;;;;;;;2.45;2.38;;;6.80;99.90;;;;;;5050400;28;20278;-77
2024/02/26 07:34:56;;;;;;;2.08;1.98;;;7.60;99.90;;;;;;5049150;28;20234;-78
2024/02/26 07:37:23;;;;;;;1.60;1.60;;;7.90;99.90;;;;;;5050511;28;20197;-78
2024/02/26 07:39:50;;;;;;;3.80;3.60;;;8.50;99.90;;;;;;5050627;28;20201;-77
2024/02/26 07:42:17;;;;;;;3.67;3.47;;;9.10;99.90;;;;;;5041976;28;20248;-76
2024/02/26 07:44:44;;;;;;;4.47;3.08;;;9.90;99.90;;;;;;5050621;28;20505;-78
2024/02/26 07:47:11;;;;;;;1.23;1.23;;;10.60;99.90;;;;;;5044042;28;20200;-77
2024/02/26 07:49:39;;;;;;;1.45;1.45;;;11.20;99.90;;;;;;5048479;28;20198;-77
2024/02/26 07:52:06;;;;;;;2.42;2.33;;;10.70;99.90;;;;;;5050976;28;20281;-78
2024/02/26 07:54:33;;;;;;;3.97;3.67;;;11.00;99.90;;;;;;5048834;28;20280;-76
2024/02/26 07:57:03;;;;;;;3.17;3.08;;;11.90;99.90;;;;;;5041424;28;20202;-76
2024/02/26 07:59:31;;;;;;;2.38;2.28;;;11.90;99.90;;;;;;5044425;28;20263;-75
2024/02/26 08:01:59;;;;;;;3.20;3.00;;;12.30;99.90;;;;;;5041080;28;20264;-77
2024/02/26 08:04:26;;;;;;;3.50;3.20;;;13.30;99.90;;;;;;5047098;28;20214;-77
2024/02/26 08:06:54;;;;;;;5.13;4.87;;;13.60;99.90;;;;;;5049996;28;20475;-78
2024/02/26 08:09:21;;;;;;;3.00;2.90;;;14.10;99.90;;;;;;5049918;28;20463;-77
2024/02/26 08:11:48;;;;;;;3.53;3.40;;;13.40;99.90;;;;;;5050598;28;20434;-77
2024/02/26 08:14:15;;;;;;;3.47;3.37;;;14.00;99.90;;;;;;5046744;28;20446;-78
2024/02/26 08:16:42;;;;;;;1.97;1.87;;;14.40;99.90;;;;;;5046129;28;20451;-78
2024/02/26 08:19:11;;;;;;;2.37;2.27;;;14.80;99.90;;;;;;5047627;28;20500;-78
2024/02/26 08:21:38;;;;;;;6.90;6.47;;;15.30;99.90;;;;;;5059733;28;20731;-77
2024/02/26 08:24:05;;;;;;;2.10;2.00;;;15.10;99.90;;;;;;5044945;28;20551;-77
2024/02/26 08:26:32;;;;;;;5.07;2.97;;;14.60;99.90;;;;;;5052829;28;20439;-77
2024/02/26 08:28:59;;;;;;;1.60;1.60;;;14.40;99.90;;;;;;5039112;28;20652;-77
2024/02/26 08:31:27;;;;;;;1.37;1.27;;;14.80;99.90;;;;;;5046390;28;20459;-77
2024/02/26 08:33:54;;;;;;;1.83;1.73;;;15.00;99.90;;;;;;5041285;28;20459;-78
2024/02/26 08:36:22;;;;;;;3.27;3.07;;;14.50;99.90;;;;;;5051008;28;20463;-78
2024/02/26 08:38:49;;;;;;;1.30;1.30;;;14.30;99.90;;;;;;5059244;28;20459;-78
2024/02/26 08:41:16;;;;;;;1.77;1.67;;;14.00;99.90;;;;;;5045795;28;20433;-79
2024/02/26 08:43:43;;;;;;;2.43;2.33;;;13.80;99.90;;;;;;5049503;28;20416;-77
2024/02/26 08:46:12;;;;;;;2.03;1.83;;;13.30;99.90;;;;;;5052945;28;20462;-77
2024/02/26 08:48:40;;;;;;;1.83;1.73;;;12.90;99.90;;;;;;5054396;28;20444;-77
2024/02/26 08:51:08;;;;;;;2.77;2.57;;;12.80;99.90;;;;;;5060870;28;20433;-78
2024/02/26 08:53:38;;;;;;;2.60;2.47;;;12.50;99.90;;;;;;5041451;28;20456;-79
2024/02/26 08:56:16;;;;;;;2.10;2.00;;;12.50;99.90;;;;;;5054993;28;20437;-78
2024/02/26 08:58:46;;;;;;;2.27;2.17;;;12.70;99.90;;;;;;5055949;28;20440;-77
2024/02/26 09:01:13;;;;;;;0.83;0.83;;;12.20;99.90;;;;;;5058927;28;20462;-79
2024/02/26 09:03:40;;;;;;;1.83;1.77;;;12.50;99.90;;;;;;5050607;28;20444;-76
2024/02/26 09:06:07;;;;;;;2.43;2.33;;;12.90;99.90;;;;;;5054760;28;20441;-76
2024/02/26 09:08:38;;;;;;;1.13;1.13;;;12.40;99.90;;;;;;5043584;28;20437;-80
2024/02/26 09:11:04;;;;;;;1.00;1.00;;;12.50;99.90;;;;;;5060103;28;20442;-77
2024/02/26 09:13:32;;;;;;;0.73;0.73;;;12.50;99.90;;;;;;5052867;28;20671;-77
2024/02/26 09:15:59;;;;;;;0.90;0.90;;;12.30;99.90;;;;;;5051780;28;20436;-78
2024/02/26 09:18:28;;;;;;;1.53;1.53;;;12.40;99.90;;;;;;5042734;28;20426;-77
2024/02/26 09:20:56;;;;;;;1.00;1.00;;;12.80;99.90;;;;;;5058927;28;20415;-77
2024/02/26 09:23:23;;;;;;;2.43;2.30;;;12.90;99.90;;;;;;5056406;28;20444;-78
2024/02/26 09:25:50;;;;;;;1.43;1.43;;;12.60;99.90;;;;;;5062691;28;20437;-77
2024/02/26 09:28:17;;;;;;;2.67;2.57;;;12.30;99.90;;;;;;5049039;28;20473;-76
2024/02/26 09:30:44;;;;;;;0.90;0.90;;;12.60;99.90;;;;;;5056500;28;20456;-77
2024/02/26 09:33:13;;;;;;;1.60;1.53;;;12.20;99.90;;;;;;5056101;28;20481;-77
2024/02/26 09:35:41;;;;;;;1.20;1.20;;;12.00;99.90;;;;;;5061147;28;20605;-78
2024/02/26 09:38:08;;;;;;;1.50;1.50;;;12.10;99.90;;;;;;5055189;28;20403;-77
2024/02/26 09:40:37;;;;;;;3.70;1.97;;;12.20;99.90;;;;;;5053253;28;20510;-76
2024/02/26 09:43:05;;;;;;;2.50;2.20;;;12.20;99.90;;;;;;5046319;28;20632;-78
2024/02/26 09:45:33;;;;;;;1.83;1.73;;;11.80;99.90;;;;;;5063530;28;20416;-76
2024/02/26 09:48:02;;;;;;;0.80;0.80;;;11.70;99.90;;;;;;5064234;28;20442;-79
2024/02/26 09:50:29;;;;;;;2.83;2.70;;;11.80;99.90;;;;;;5055860;28;20801;-77
2024/02/26 09:52:59;;;;;;;0.90;0.90;;;12.20;99.90;;;;;;5052231;28;20481;-78
2024/02/26 09:55:26;;;;;;;1.08;1.08;;;12.00;99.90;;;;;;5051633;28;20446;-77
2024/02/26 09:57:54;;;;;;;1.67;1.57;;;12.30;99.90;;;;;;5056852;28;20200;-78
2024/02/26 10:00:22;;;;;;;0.70;0.70;;;12.50;99.90;;;;;;5047929;28;20683;-79
2024/02/26 10:02:51;;;;;;;1.87;1.77;;;12.70;99.90;;;;;;5057860;28;20444;-78
2024/02/26 10:05:20;;;;;;;2.63;2.50;;;12.50;99.90;;;;;;5060390;28;20778;-76
2024/02/26 10:07:47;;;;;;;1.73;1.63;;;12.70;99.90;;;;;;5055663;28;20501;-78
2024/02/26 10:10:15;;;;;;;2.10;2.00;;;12.70;99.90;;;;;;5052350;28;20511;-76
2024/02/26 10:12:42;;;;;;;1.23;0.90;;;12.30;99.90;;;;;;5047894;28;20525;-77
2024/02/26 10:15:09;;;;;;;0.90;0.90;;;12.10;99.90;;;;;;5051199;28;20453;-77
2024/02/26 10:17:38;;;;;;;1.73;1.67;;;12.10;99.90;;;;;;5060350;28;20453;-76
2024/02/26 10:20:21;;;;;;;1.37;1.27;;;12.40;99.90;;;;;;5049237;28;20449;-76
2024/02/26 10:22:49;;;;;;;0.73;0.73;;;12.80;99.90;;;;;;5046314;28;20447;-77
2024/02/26 10:25:16;;;;;;;3.83;3.53;;;13.10;99.90;;;;;;5056636;28;20477;-78
2024/02/26 10:27:43;;;;;;;1.20;1.20;;;12.70;99.90;;;;;;5042651;28;20434;-77
2024/02/26 10:30:21;;;;;;;0.60;0.60;;;12.40;99.90;;;;;;5058341;28;20443;-78
2024/02/26 10:32:49;;;;;;;1.00;1.00;;;12.40;99.90;;;;;;5050102;28;20534;-77
2024/02/26 10:35:18;;;;;;;1.17;1.17;;;12.30;99.90;;;;;;5051265;28;20444;-76
2024/02/26 10:37:46;;;;;;;0.70;0.70;;;12.40;99.90;;;;;;5051363;28;20411;-77
2024/02/26 10:40:16;;;;;;;0.60;0.60;;;12.40;99.90;;;;;;5056972;28;20442;-77
2024/02/26 10:42:45;;;;;;;2.33;2.13;;;12.60;99.90;;;;;;5061455;28;20469;-78
2024/02/26 10:45:12;;;;;;;0.70;0.70;;;12.90;99.90;;;;;;5062465;28;20461;-76
2024/02/26 10:47:41;;;;;;;0.90;0.90;;;12.60;99.90;;;;;;5048843;28;20431;-77
2024/02/26 10:50:09;;;;;;;2.60;2.40;;;12.70;99.90;;;;;;5043279;28;20419;-76
2024/02/26 10:52:37;;;;;;;2.53;2.40;;;12.90;99.90;;;;;;5051966;28;20616;-77
2024/02/26 10:55:08;;;;;;;0.60;0.60;;;12.60;99.90;;;;;;5047331;28;20454;-78
2024/02/26 10:57:39;;;;;;;1.43;1.43;;;12.70;99.90;;;;;;5048435;28;20442;-78
2024/02/26 11:00:10;;;;;;;1.27;1.27;;;12.80;99.90;;;;;;5045075;28;20438;-78
2024/02/26 11:02:39;;;;;;;4.10;1.53;;;12.60;99.90;;;;;;5052154;28;20418;-78
2024/02/26 11:05:08;;;;;;;1.97;1.87;;;12.30;99.90;;;;;;5050144;28;20468;-77
2024/02/26 11:07:38;;;;;;;0.50;0.50;;;12.60;99.90;;;;;;5053083;28;20444;-76
2024/02/26 11:10:05;;;;;;;1.45;1.35;;;12.50;99.90;;;;;;5051682;28;20267;-77
2024/02/26 11:12:37;;;;;;;3.90;3.60;;;12.50;99.90;;;;;;5066176;28;20201;-77
2024/02/26 11:15:05;;;;;;;1.53;1.43;;;12.50;99.90;;;;;;5055060;28;20406;-76
2024/02/26 11:17:34;;;;;;;1.30;1.30;;;12.60;99.90;;;;;;5053201;28;20502;-76
2024/02/26 11:20:05;;;;;;;1.73;1.63;;;12.70;99.90;;;;;;5054827;28;20440;-79
2024/02/26 11:22:33;;;;;;;0.70;0.70;;;13.00;99.90;;;;;;5051927;28;20451;-76
2024/02/26 11:25:01;;;;;;;1.60;1.53;;;12.90;99.90;;;;;;5060046;28;20436;-78
2024/02/26 11:27:32;;;;;;;8.20;1.90;;;12.70;99.90;;;;;;5047282;28;20438;-78
2024/02/26 11:30:04;;;;;;;0.60;0.60;;;12.80;99.90;;;;;;5053214;28;20201;-78
2024/02/26 11:32:31;;;;;;;1.37;1.37;;;12.80;99.90;;;;;;5057509;28;20489;-78
2024/02/26 11:34:59;;;;;;;0.70;0.70;;;12.90;99.90;;;;;;5048290;28;20818;-77
2024/02/26 11:37:27;;;;;;;3.43;1.27;;;13.10;99.90;;;;;;5039730;28;20464;-77
2024/02/26 11:39:54;;;;;;;1.37;1.37;;;13.00;99.90;;;;;;5057523;28;20564;-77
2024/02/26 11:42:25;;;;;;;0.80;0.80;;;13.00;99.90;;;;;;5048534;28;20457;-77
2024/02/26 11:44:52;;;;;;;0.70;0.70;;;13.30;99.90;;;;;;5051244;28;20419;-79
2024/02/26 11:47:21;;;;;;;0.90;0.90;;;13.30;99.90;;;;;;5042920;28;20550;-78
2024/02/26 11:49:49;;;;;;;1.43;1.43;;;13.00;99.90;;;;;;5053457;28;20492;-78
2024/02/26 11:52:16;;;;;;;1.00;1.00;;;13.00;99.90;;;;;;5045057;28;20744;-76
2024/02/26 11:54:55;;;;;;;0.80;0.80;;;13.10;99.90;;;;;;5065328;28;20543;-80
2024/02/26 11:57:27;;;;;;;0.70;0.70;;;13.20;99.90;;;;;;5053544;28;20475;-79
2024/02/26 12:00:22;;;;;;;0.73;0.73;;;13.20;99.90;;;;;;5053324;28;20425;-79
2024/02/26 12:03:01;;;;;;;1.63;1.53;;;13.40;99.90;;;;;;5056223;28;20457;-77
2024/02/26 12:05:32;;;;;;;0.70;0.70;;;13.60;99.90;;;;;;5034715;28;20607;-77
2024/02/26 12:08:06;;;;;;;0.73;0.73;;;13.40;99.90;;;;;;5041887;28;20468;-77
2024/02/26 12:10:39;;;;;;;0.80;0.80;;;13.40;99.90;;;;;;5043918;28;20621;-80
2024/02/26 12:13:13;;;;;;;1.50;1.40;;;13.40;99.90;;;;;;5051089;28;20614;-81
2024/02/26 12:15:57;;;;;;;0.90;0.90;;;13.30;99.90;;;;;;5053563;28;20444;-77
2024/02/26 12:18:24;;;;;;;1.03;1.03;;;13.30;99.90;;;;;;5052543;28;20465;-78
2024/02/26 12:21:03;;;;;;;2.77;1.60;;;13.40;99.90;;;;;;5044323;28;20452;-79
2024/02/26 12:23:31;;;;;;;0.70;0.70;;;13.70;99.90;;;;;;5050984;28;20454;-78
2024/02/26 12:25:59;;;;;;;0.80;0.80;;;13.50;99.90;;;;;;5048855;28;20495;-79
2024/02/26 12:28:29;;;;;;;2.77;1.63;;;13.60;99.90;;;;;;5048823;28;20452;-77
2024/02/26 12:30:59;;;;;;;0.70;0.70;;;13.60;99.90;;;;;;5060395;28;20459;-76
2024/02/26 12:33:27;;;;;;;0.80;0.80;;;13.50;99.90;;;;;;5061452;28;20514;-79
2024/02/26 12:35:56;;;;;;;0.90;0.90;;;13.20;99.90;;;;;;5058051;28;20403;-78
2024/02/26 12:38:23;;;;;;;1.47;1.47;;;13.50;99.90;;;;;;5047378;28;20408;-77
2024/02/26 12:40:51;;;;;;;0.70;0.70;;;13.50;99.90;;;;;;5045710;28;20539;-78
2024/02/26 12:43:18;;;;;;;0.80;0.80;;;13.70;99.90;;;;;;5049808;28;20500;-76
2024/02/26 12:45:47;;;;;;;0.70;0.70;;;13.50;99.90;;;;;;5049029;28;20484;-76
2024/02/26 12:48:14;;;;;;;0.70;0.70;;;13.50;99.90;;;;;;5046690;28;20812;-79
2024/02/26 12:50:47;;;;;;;0.70;0.70;;;13.50;99.90;;;;;;5052157;28;20445;-78
2024/02/26 12:53:14;;;;;;;0.70;0.70;;;13.50;99.90;;;;;;5052596;28;20421;-78
2024/02/26 12:55:42;;;;;;;0.60;0.60;;;13.20;99.90;;;;;;5057000;28;20520;-77
2024/02/26 12:58:10;;;;;;;0.70;0.70;;;13.40;99.90;;;;;;5060997;28;20865;-79